Ocean King — CZ2591 — position and weather

sailwx.info

Track history (hours):
 
Tides and Currents Weather Stations Pressure Air Temp Water Temp Dewpoint Dewpoint Depression Visibility Wind Speed Wind Dir Waves Ship Positions

Ocean King

Last reported at 2015-Jul-06 23:34 UTC. Time now 2015-Jul-07 00:14 UTC.
Position N 48°57' W 125°33'.

Length 29 m; draft 4 m.

Type: Fishing. MMSI: 316003514.

Date/timePositionNaut miles runAvg speedWind from/ knotsBaromVisibWave heightAir tempDewpointWater temp
2015-Jul-06 23:34N 48°57' W 125°33'0 0.0
2015-Jul-06 22:34N 48°57' W 125°33'0 0.0
2015-Jul-06 21:34N 48°57' W 125°33'0 0.0
2015-Jul-06 20:34N 48°57' W 125°33'0 0.0
2015-Jul-06 19:33N 48°57' W 125°33'0 0.0
2015-Jul-06 18:34N 48°57' W 125°33'0 0.0
2015-Jul-06 17:34N 48°57' W 125°33'0 0.0
2015-Jul-06 16:34N 48°57' W 125°33'0 0.0
2015-Jul-06 15:34N 48°57' W 125°33'0 0.0
2015-Jul-06 14:33N 48°57' W 125°33'0 0.0
2015-Jul-06 13:34N 48°57' W 125°33'0 0.0
2015-Jul-06 12:34N 48°57' W 125°33'0 0.0
2015-Jul-06 11:34N 48°57' W 125°33'0 0.0
2015-Jul-06 10:34N 48°57' W 125°33'3 3.5
2015-Jul-06 09:34N 48°54' W 125°36'8 7.5
2015-Jul-06 08:33N 48°51' W 125°46'8 7.8
2015-Jul-06 07:34N 48°49' W 125°57'8 7.6
2015-Jul-06 06:34N 48°46' W 126°08'4 4.1
2015-Jul-06 05:34N 48°45' W 126°14'1 1.4
2015-Jul-06 04:34N 48°44' W 126°16'2 1.9
2015-Jul-06 03:34N 48°46' W 126°17'3 2.8
2015-Jul-06 02:34N 48°48' W 126°20'3 2.7
2015-Jul-06 01:34N 48°51' W 126°21'1 0.6
2015-Jul-06 00:34N 48°50' W 126°21'2 1.8
2015-Jul-05 23:33N 48°49' W 126°22'1 1.3
2015-Jul-05 22:33N 48°48' W 126°21'2 1.8
2015-Jul-05 21:34N 48°47' W 126°18'2 2.3
2015-Jul-05 20:34N 48°45' W 126°18'2 1.7
2015-Jul-05 19:34N 48°46' W 126°16'0 0.4
2015-Jul-05 18:34N 48°45' W 126°16'2 2.0
2015-Jul-05 17:34N 48°46' W 126°18'0 0.4
2015-Jul-05 16:33N 48°46' W 126°18'2 1.8
2015-Jul-05 15:33N 48°46' W 126°15'2 2.2
2015-Jul-05 14:33N 48°48' W 126°17'1 0.5
2015-Jul-05 13:33N 48°48' W 126°18'7 7.3
2015-Jul-05 12:34N 48°48' W 126°07'8 8.1
2015-Jul-05 11:33N 48°50' W 125°55'8 7.9
2015-Jul-05 10:34N 48°53' W 125°43'7 6.9
2015-Jul-05 09:34N 48°54' W 125°33'2 2.4
2015-Jul-05 08:34N 48°57' W 125°33'0 0.0
2015-Jul-05 07:34N 48°57' W 125°33'0 0.0
2015-Jul-05 06:33N 48°57' W 125°33'0 0.0
2015-Jul-05 05:34N 48°57' W 125°33'0 0.0
2015-Jul-05 04:34N 48°57' W 125°33'0 0.0
2015-Jul-05 03:33N 48°57' W 125°33'0 0.0
2015-Jul-05 02:34N 48°57' W 125°33'0 0.0
2015-Jul-05 01:34N 48°57' W 125°33'0 0.0
2015-Jul-05 00:34N 48°57' W 125°33'0 0.0
2015-Jul-04 23:34N 48°57' W 125°33'0 0.0
2015-Jul-04 22:34N 48°57' W 125°33'0 0.0
2015-Jul-04 21:34N 48°57' W 125°33'0 0.0
2015-Jul-04 20:34N 48°57' W 125°33'0 0.0
2015-Jul-04 19:33N 48°57' W 125°33'0 0.0
2015-Jul-04 18:33N 48°57' W 125°33'0 0.0
2015-Jul-04 17:33N 48°57' W 125°33'0 0.0
2015-Jul-04 16:33N 48°57' W 125°33'0 0.0
2015-Jul-04 15:33N 48°57' W 125°33'0 0.0
2015-Jul-04 14:33N 48°57' W 125°33'0 0.0
2015-Jul-04 13:33N 48°57' W 125°33'0 0.0
2015-Jul-04 12:33N 48°57' W 125°33'0 0.0
2015-Jul-04 11:33N 48°57' W 125°33'0 0.0
2015-Jul-04 10:33N 48°57' W 125°33'0 0.0
2015-Jul-04 09:33N 48°57' W 125°33'0 0.0
2015-Jul-04 08:33N 48°57' W 125°33'0 0.0
2015-Jul-04 07:33N 48°57' W 125°33'0 0.0
2015-Jul-04 06:33N 48°57' W 125°33'0 0.0
2015-Jul-04 05:33N 48°57' W 125°33'0 0.0
2015-Jul-04 04:34N 48°57' W 125°33'0 0.0
2015-Jul-04 03:33N 48°57' W 125°33'0 0.0
2015-Jul-04 02:33N 48°57' W 125°33'0 0.0
2015-Jul-04 01:33N 48°57' W 125°33'0 0.0
2015-Jul-04 00:30N 48°57' W 125°33'0 0.0
2015-Jul-03 23:33N 48°57' W 125°33'0 0.0
2015-Jul-03 22:33N 48°57' W 125°33'0 0.0
2015-Jul-03 21:33N 48°57' W 125°33'0 0.0
2015-Jul-03 20:33N 48°57' W 125°33'0 0.0
2015-Jul-03 19:33N 48°57' W 125°33'0 0.0
2015-Jul-03 18:33N 48°57' W 125°33'0 0.0
2015-Jul-03 17:33N 48°57' W 125°33'0 0.0
2015-Jul-03 16:33N 48°57' W 125°33'0 0.0
2015-Jul-03 15:33N 48°57' W 125°33'0 0.0
2015-Jul-03 14:33N 48°57' W 125°33'0 0.0
2015-Jul-03 13:33N 48°57' W 125°33'0 0.0
2015-Jul-03 12:33N 48°57' W 125°33'0 0.0
2015-Jul-03 11:33N 48°57' W 125°33'0 0.0
2015-Jul-03 10:33N 48°57' W 125°33'0 0.0
2015-Jul-03 09:33N 48°57' W 125°33'0 0.0
2015-Jul-03 08:33N 48°57' W 125°33'0 0.0
2015-Jul-03 07:33N 48°57' W 125°33'0 0.0
2015-Jul-03 06:33N 48°57' W 125°33'0 0.0
2015-Jul-03 05:33N 48°57' W 125°33'0 0.0
2015-Jul-03 04:34N 48°57' W 125°33'0 0.0
2015-Jul-03 03:33N 48°57' W 125°33'0 0.0
2015-Jul-03 02:33N 48°57' W 125°33'0 0.0
2015-Jul-03 01:33N 48°57' W 125°33'0 0.0
2015-Jul-03 00:33N 48°57' W 125°33'0 0.0
2015-Jul-02 23:33N 48°57' W 125°33'0 0.0
2015-Jul-02 22:33N 48°57' W 125°33'0 0.0
2015-Jul-02 21:33N 48°57' W 125°33'0 0.0
2015-Jul-02 20:33N 48°57' W 125°33'0 0.0
2015-Jul-02 19:33N 48°57' W 125°33'0 0.0
2015-Jul-02 18:33N 48°57' W 125°33'0 0.0
2015-Jul-02 17:33N 48°57' W 125°33'0 0.0
2015-Jul-02 16:33N 48°57' W 125°33'0 0.0
2015-Jul-02 15:33N 48°57' W 125°33'0 0.0
2015-Jul-02 14:33N 48°57' W 125°33'0 0.0
2015-Jul-02 13:33N 48°57' W 125°33'0 0.0
2015-Jul-02 12:33N 48°57' W 125°33'0 0.0
2015-Jul-02 11:33N 48°57' W 125°33'0 0.0
2015-Jul-02 10:33N 48°57' W 125°33'0 0.0
2015-Jul-02 09:33N 48°57' W 125°33'0 0.0
2015-Jul-02 08:33N 48°57' W 125°33'0 0.0
2015-Jul-02 07:33N 48°57' W 125°33'0 0.0
2015-Jul-02 06:33N 48°57' W 125°33'0 0.0
2015-Jul-02 05:33N 48°57' W 125°33'0 0.0
2015-Jul-02 04:33N 48°57' W 125°33'0 0.0
2015-Jul-02 03:33N 48°57' W 125°33'0 0.0
2015-Jul-02 02:33N 48°57' W 125°33'0 0.0
2015-Jul-02 01:33N 48°57' W 125°33'0 0.0
2015-Jul-02 00:33N 48°57' W 125°33'0 0.0
2015-Jul-01 23:33N 48°57' W 125°33'0 0.0
2015-Jul-01 22:33N 48°57' W 125°33'0 0.0
2015-Jul-01 21:33N 48°57' W 125°33'0 0.0
2015-Jul-01 20:33N 48°57' W 125°33'0 0.0
2015-Jul-01 19:33N 48°57' W 125°33'1 0.5
2015-Jul-01 18:33N 48°56' W 125°32'0 0.0
2015-Jul-01 17:33N 48°56' W 125°32'0 0.0
2015-Jul-01 16:33N 48°56' W 125°32'1 0.6
2015-Jul-01 15:33N 48°57' W 125°33'0 0.0
2015-Jul-01 14:33N 48°57' W 125°33'0 0.0
2015-Jul-01 13:33N 48°57' W 125°33'0 0.0
2015-Jul-01 12:33N 48°57' W 125°33'0 0.0
2015-Jul-01 11:33N 48°57' W 125°33'0 0.0
2015-Jul-01 10:33N 48°57' W 125°33'0 0.0
2015-Jul-01 09:33N 48°57' W 125°33'0 0.0
2015-Jul-01 08:33N 48°57' W 125°33'0 0.0
2015-Jul-01 07:33N 48°57' W 125°33'0 0.0
2015-Jul-01 06:33N 48°57' W 125°33'0 0.0
2015-Jul-01 05:33N 48°57' W 125°33'0 0.0
2015-Jul-01 04:33N 48°57' W 125°33'0 0.0
2015-Jul-01 03:33N 48°57' W 125°33'5 5.4
2015-Jul-01 02:33N 48°51' W 125°35'8 8.1
2015-Jul-01 01:33N 48°44' W 125°41'8 8.1
2015-Jul-01 00:33N 48°38' W 125°48'8 8.0
2015-Jun-30 23:33N 48°31' W 125°54'8 7.6
2015-Jun-30 22:33N 48°29' W 126°05'1 0.8
2015-Jun-30 21:32N 48°30' W 126°06'3 2.7
2015-Jun-30 20:30N 48°28' W 126°03'3 2.9
2015-Jun-30 19:34N 48°27' W 125°60'4 4.0
2015-Jun-30 18:33N 48°24' W 125°55'2 1.6
2015-Jun-30 17:32N 48°23' W 125°54'2 2.2
2015-Jun-30 16:33N 48°25' W 125°55'3 2.8
2015-Jun-30 15:33N 48°28' W 125°56'3 2.6
2015-Jun-30 14:33N 48°29' W 125°59'5 4.6
2015-Jun-30 13:34N 48°24' W 125°58'7 6.5
2015-Jun-30 12:33N 48°29' W 126°05'3 2.7
2015-Jun-30 11:30N 48°29' W 126°01'5 5.0
2015-Jun-30 10:34N 48°33' W 125°57'8 7.8
2015-Jun-30 09:33N 48°39' W 125°49'9 9.1
2015-Jun-30 08:33N 48°46' W 125°41'9 8.9
2015-Jun-30 07:33N 48°53' W 125°33'3 3.2
2015-Jun-30 06:34N 48°57' W 125°33'0 0.0
2015-Jun-30 05:34N 48°57' W 125°33'0 0.0
2015-Jun-30 04:33N 48°57' W 125°33'0 0.0
2015-Jun-30 03:34N 48°57' W 125°33'0 0.0
2015-Jun-30 02:33N 48°57' W 125°33'0 0.0
2015-Jun-30 01:33N 48°57' W 125°33'0 0.0
2015-Jun-30 00:33N 48°57' W 125°33'0 0.0
2015-Jun-29 23:34N 48°57' W 125°33'0 0.4
2015-Jun-29 22:33N 48°56' W 125°32'0 0.0
2015-Jun-29 21:33N 48°56' W 125°32'0 0.0
2015-Jun-29 20:34N 48°56' W 125°32'0 0.0
2015-Jun-29 19:34N 48°56' W 125°32'0 0.5
2015-Jun-29 18:33N 48°57' W 125°33'0 0.0
2015-Jun-29 17:34N 48°57' W 125°33'0 0.0
2015-Jun-29 16:33N 48°57' W 125°33'0 0.0
2015-Jun-29 15:33N 48°57' W 125°33'0 0.0
2015-Jun-29 14:34N 48°57' W 125°33'0 0.0
2015-Jun-29 13:34N 48°57' W 125°33'0 0.0
2015-Jun-29 12:33N 48°57' W 125°33'0 0.0
2015-Jun-29 11:34N 48°57' W 125°33'0 0.0
2015-Jun-29 10:33N 48°57' W 125°33'0 0.0
2015-Jun-29 09:33N 48°57' W 125°33'2 1.8
2015-Jun-29 08:34N 48°55' W 125°31'8 7.8
2015-Jun-29 07:34N 48°49' W 125°38'8 7.8
2015-Jun-29 06:33N 48°43' W 125°46'8 7.8
2015-Jun-29 05:34N 48°37' W 125°52'8 8.0
2015-Jun-29 04:33N 48°30' W 125°59'3 3.0
2015-Jun-29 03:33N 48°28' W 126°02'1 1.4
2015-Jun-29 02:33N 48°27' W 126°01'5 5.4
2015-Jun-29 01:33N 48°31' W 126°07'1 0.7
2015-Jun-29 00:34N 48°30' W 126°06'2 2.4
2015-Jun-28 23:33N 48°28' W 126°04'2 1.6
2015-Jun-28 22:34N 48°27' W 126°04'2 1.8
2015-Jun-28 21:33N 48°28' W 126°06'1 0.6
2015-Jun-28 20:33N 48°28' W 126°06'2 2.4
2015-Jun-28 19:33N 48°31' W 126°07'2 2.4
2015-Jun-28 18:33N 48°29' W 126°05'2 2.1
2015-Jun-28 17:33N 48°27' W 126°05'1 1.4
2015-Jun-28 16:33N 48°28' W 126°05'7 7.3
2015-Jun-28 15:33N 48°35' W 126°10'7 7.5
2015-Jun-28 14:33N 48°41' W 126°14'7 7.2
2015-Jun-28 13:33N 48°47' W 126°21'3 2.6
2015-Jun-28 12:34N 48°46' W 126°18'1 0.9
2015-Jun-28 11:34N 48°47' W 126°17'5 5.2
2015-Jun-28 10:33N 48°48' W 126°09'8 8.4
2015-Jun-28 09:33N 48°50' W 125°57'9 8.7
2015-Jun-28 08:33N 48°53' W 125°44'8 8.5
2015-Jun-28 07:33N 48°55' W 125°32'2 1.7
2015-Jun-28 06:33N 48°57' W 125°33'0 0.0
2015-Jun-28 05:33N 48°57' W 125°33'0 0.0
2015-Jun-28 04:34N 48°57' W 125°33'0 0.0
2015-Jun-28 03:34N 48°57' W 125°33'0 0.0
2015-Jun-28 02:34N 48°57' W 125°33'0 0.0
2015-Jun-28 01:34N 48°57' W 125°33'0 0.0
2015-Jun-28 00:34N 48°57' W 125°33'0 0.0
2015-Jun-27 23:33N 48°57' W 125°33'0 0.0
2015-Jun-27 22:33N 48°57' W 125°33'0 0.0
2015-Jun-27 21:34N 48°57' W 125°33'0 0.0
2015-Jun-27 20:33N 48°57' W 125°33'0 0.0
2015-Jun-27 19:34N 48°57' W 125°33'0 0.0
2015-Jun-27 18:33N 48°57' W 125°33'0 0.0
2015-Jun-27 17:33N 48°57' W 125°33'1 0.6
2015-Jun-27 16:33N 48°56' W 125°32'0 0.0
2015-Jun-27 15:33N 48°56' W 125°32'1 0.6
2015-Jun-27 14:33N 48°57' W 125°33'2 1.7
2015-Jun-27 13:34N 48°55' W 125°32'8 8.0
2015-Jun-27 12:33N 48°58' W 125°43'8 8.4
2015-Jun-27 11:34N 49°02' W 125°54'8 8.5
2015-Jun-27 10:34N 49°06' W 126°06'9 8.6
2015-Jun-27 09:33N 49°10' W 126°17'9 8.6
2015-Jun-27 08:34N 49°15' W 126°28'9 8.8
2015-Jun-27 07:34N 49°20' W 126°39'9 8.7
2015-Jun-27 06:33N 49°25' W 126°50'9 8.9
2015-Jun-27 05:33N 49°31' W 126°60'9 8.7
2015-Jun-27 04:33N 49°37' W 127°10'8 7.9
2015-Jun-27 03:33N 49°42' W 127°19'8 8.3
2015-Jun-27 02:33N 49°48' W 127°28'9 8.6
2015-Jun-27 01:33N 49°54' W 127°38'  
Track history (hours):
 
Tides and Currents Weather Stations Pressure Air Temp Water Temp Dewpoint Dewpoint Depression Visibility Wind Speed Wind Dir Waves Ship Positions

Ocean King

Last reported at 2015-Jul-06 23:34 UTC. Time now 2015-Jul-07 00:14 UTC.
Position N 48°57' W 125°33'.

Length 29 m; draft 4 m.

Type: Fishing. MMSI: 316003514.

Date/timePositionNaut miles runAvg speedWind from/ knotsBaromVisibWave heightAir tempDewpointWater temp
2015-Jul-06 23:34N 48°57' W 125°33'0 0.0
2015-Jul-06 22:34N 48°57' W 125°33'0 0.0
2015-Jul-06 21:34N 48°57' W 125°33'0 0.0
2015-Jul-06 20:34N 48°57' W 125°33'0 0.0
2015-Jul-06 19:33N 48°57' W 125°33'0 0.0
2015-Jul-06 18:34N 48°57' W 125°33'0 0.0
2015-Jul-06 17:34N 48°57' W 125°33'0 0.0
2015-Jul-06 16:34N 48°57' W 125°33'0 0.0
2015-Jul-06 15:34N 48°57' W 125°33'0 0.0
2015-Jul-06 14:33N 48°57' W 125°33'0 0.0
2015-Jul-06 13:34N 48°57' W 125°33'0 0.0
2015-Jul-06 12:34N 48°57' W 125°33'0 0.0
2015-Jul-06 11:34N 48°57' W 125°33'0 0.0
2015-Jul-06 10:34N 48°57' W 125°33'3 3.5
2015-Jul-06 09:34N 48°54' W 125°36'8 7.5
2015-Jul-06 08:33N 48°51' W 125°46'8 7.8
2015-Jul-06 07:34N 48°49' W 125°57'8 7.6
2015-Jul-06 06:34N 48°46' W 126°08'4 4.1
2015-Jul-06 05:34N 48°45' W 126°14'1 1.4
2015-Jul-06 04:34N 48°44' W 126°16'2 1.9
2015-Jul-06 03:34N 48°46' W 126°17'3 2.8
2015-Jul-06 02:34N 48°48' W 126°20'3 2.7
2015-Jul-06 01:34N 48°51' W 126°21'1 0.6
2015-Jul-06 00:34N 48°50' W 126°21'2 1.8
2015-Jul-05 23:33N 48°49' W 126°22'1 1.3
2015-Jul-05 22:33N 48°48' W 126°21'2 1.8
2015-Jul-05 21:34N 48°47' W 126°18'2 2.3
2015-Jul-05 20:34N 48°45' W 126°18'2 1.7
2015-Jul-05 19:34N 48°46' W 126°16'0 0.4
2015-Jul-05 18:34N 48°45' W 126°16'2 2.0
2015-Jul-05 17:34N 48°46' W 126°18'0 0.4
2015-Jul-05 16:33N 48°46' W 126°18'2 1.8
2015-Jul-05 15:33N 48°46' W 126°15'2 2.2
2015-Jul-05 14:33N 48°48' W 126°17'1 0.5
2015-Jul-05 13:33N 48°48' W 126°18'7 7.3
2015-Jul-05 12:34N 48°48' W 126°07'8 8.1
2015-Jul-05 11:33N 48°50' W 125°55'8 7.9
2015-Jul-05 10:34N 48°53' W 125°43'7 6.9
2015-Jul-05 09:34N 48°54' W 125°33'2 2.4
2015-Jul-05 08:34N 48°57' W 125°33'0 0.0
2015-Jul-05 07:34N 48°57' W 125°33'0 0.0
2015-Jul-05 06:33N 48°57' W 125°33'0 0.0
2015-Jul-05 05:34N 48°57' W 125°33'0 0.0
2015-Jul-05 04:34N 48°57' W 125°33'0 0.0
2015-Jul-05 03:33N 48°57' W 125°33'0 0.0
2015-Jul-05 02:34N 48°57' W 125°33'0 0.0
2015-Jul-05 01:34N 48°57' W 125°33'0 0.0
2015-Jul-05 00:34N 48°57' W 125°33'0 0.0
2015-Jul-04 23:34N 48°57' W 125°33'0 0.0
2015-Jul-04 22:34N 48°57' W 125°33'0 0.0
2015-Jul-04 21:34N 48°57' W 125°33'0 0.0
2015-Jul-04 20:34N 48°57' W 125°33'0 0.0
2015-Jul-04 19:33N 48°57' W 125°33'0 0.0
2015-Jul-04 18:33N 48°57' W 125°33'0 0.0
2015-Jul-04 17:33N 48°57' W 125°33'0 0.0
2015-Jul-04 16:33N 48°57' W 125°33'0 0.0
2015-Jul-04 15:33N 48°57' W 125°33'0 0.0
2015-Jul-04 14:33N 48°57' W 125°33'0 0.0
2015-Jul-04 13:33N 48°57' W 125°33'0 0.0
2015-Jul-04 12:33N 48°57' W 125°33'0 0.0
2015-Jul-04 11:33N 48°57' W 125°33'0 0.0
2015-Jul-04 10:33N 48°57' W 125°33'0 0.0
2015-Jul-04 09:33N 48°57' W 125°33'0 0.0
2015-Jul-04 08:33N 48°57' W 125°33'0 0.0
2015-Jul-04 07:33N 48°57' W 125°33'0 0.0
2015-Jul-04 06:33N 48°57' W 125°33'0 0.0
2015-Jul-04 05:33N 48°57' W 125°33'0 0.0
2015-Jul-04 04:34N 48°57' W 125°33'0 0.0
2015-Jul-04 03:33N 48°57' W 125°33'0 0.0
2015-Jul-04 02:33N 48°57' W 125°33'0 0.0
2015-Jul-04 01:33N 48°57' W 125°33'0 0.0
2015-Jul-04 00:30N 48°57' W 125°33'0 0.0
2015-Jul-03 23:33N 48°57' W 125°33'0 0.0
2015-Jul-03 22:33N 48°57' W 125°33'0 0.0
2015-Jul-03 21:33N 48°57' W 125°33'0 0.0
2015-Jul-03 20:33N 48°57' W 125°33'0 0.0
2015-Jul-03 19:33N 48°57' W 125°33'0 0.0
2015-Jul-03 18:33N 48°57' W 125°33'0 0.0
2015-Jul-03 17:33N 48°57' W 125°33'0 0.0
2015-Jul-03 16:33N 48°57' W 125°33'0 0.0
2015-Jul-03 15:33N 48°57' W 125°33'0 0.0
2015-Jul-03 14:33N 48°57' W 125°33'0 0.0
2015-Jul-03 13:33N 48°57' W 125°33'0 0.0
2015-Jul-03 12:33N 48°57' W 125°33'0 0.0
2015-Jul-03 11:33N 48°57' W 125°33'0 0.0
2015-Jul-03 10:33N 48°57' W 125°33'0 0.0
2015-Jul-03 09:33N 48°57' W 125°33'0 0.0
2015-Jul-03 08:33N 48°57' W 125°33'0 0.0
2015-Jul-03 07:33N 48°57' W 125°33'0 0.0
2015-Jul-03 06:33N 48°57' W 125°33'0 0.0
2015-Jul-03 05:33N 48°57' W 125°33'0 0.0
2015-Jul-03 04:34N 48°57' W 125°33'0 0.0
2015-Jul-03 03:33N 48°57' W 125°33'0 0.0
2015-Jul-03 02:33N 48°57' W 125°33'0 0.0
2015-Jul-03 01:33N 48°57' W 125°33'0 0.0
2015-Jul-03 00:33N 48°57' W 125°33'0 0.0
2015-Jul-02 23:33N 48°57' W 125°33'0 0.0
2015-Jul-02 22:33N 48°57' W 125°33'0 0.0
2015-Jul-02 21:33N 48°57' W 125°33'0 0.0
2015-Jul-02 20:33N 48°57' W 125°33'0 0.0
2015-Jul-02 19:33N 48°57' W 125°33'0 0.0
2015-Jul-02 18:33N 48°57' W 125°33'0 0.0
2015-Jul-02 17:33N 48°57' W 125°33'0 0.0
2015-Jul-02 16:33N 48°57' W 125°33'0 0.0
2015-Jul-02 15:33N 48°57' W 125°33'0 0.0
2015-Jul-02 14:33N 48°57' W 125°33'0 0.0
2015-Jul-02 13:33N 48°57' W 125°33'0 0.0
2015-Jul-02 12:33N 48°57' W 125°33'0 0.0
2015-Jul-02 11:33N 48°57' W 125°33'0 0.0
2015-Jul-02 10:33N 48°57' W 125°33'0 0.0
2015-Jul-02 09:33N 48°57' W 125°33'0 0.0
2015-Jul-02 08:33N 48°57' W 125°33'0 0.0
2015-Jul-02 07:33N 48°57' W 125°33'0 0.0
2015-Jul-02 06:33N 48°57' W 125°33'0 0.0
2015-Jul-02 05:33N 48°57' W 125°33'0 0.0
2015-Jul-02 04:33N 48°57' W 125°33'0 0.0
2015-Jul-02 03:33N 48°57' W 125°33'0 0.0
2015-Jul-02 02:33N 48°57' W 125°33'0 0.0
2015-Jul-02 01:33N 48°57' W 125°33'0 0.0
2015-Jul-02 00:33N 48°57' W 125°33'0 0.0
2015-Jul-01 23:33N 48°57' W 125°33'0 0.0
2015-Jul-01 22:33N 48°57' W 125°33'0 0.0
2015-Jul-01 21:33N 48°57' W 125°33'0 0.0
2015-Jul-01 20:33N 48°57' W 125°33'0 0.0
2015-Jul-01 19:33N 48°57' W 125°33'1 0.5
2015-Jul-01 18:33N 48°56' W 125°32'0 0.0
2015-Jul-01 17:33N 48°56' W 125°32'0 0.0
2015-Jul-01 16:33N 48°56' W 125°32'1 0.6
2015-Jul-01 15:33N 48°57' W 125°33'0 0.0
2015-Jul-01 14:33N 48°57' W 125°33'0 0.0
2015-Jul-01 13:33N 48°57' W 125°33'0 0.0
2015-Jul-01 12:33N 48°57' W 125°33'0 0.0
2015-Jul-01 11:33N 48°57' W 125°33'0 0.0
2015-Jul-01 10:33N 48°57' W 125°33'0 0.0
2015-Jul-01 09:33N 48°57' W 125°33'0 0.0
2015-Jul-01 08:33N 48°57' W 125°33'0 0.0
2015-Jul-01 07:33N 48°57' W 125°33'0 0.0
2015-Jul-01 06:33N 48°57' W 125°33'0 0.0
2015-Jul-01 05:33N 48°57' W 125°33'0 0.0
2015-Jul-01 04:33N 48°57' W 125°33'0 0.0
2015-Jul-01 03:33N 48°57' W 125°33'5 5.4
2015-Jul-01 02:33N 48°51' W 125°35'8 8.1
2015-Jul-01 01:33N 48°44' W 125°41'8 8.1
2015-Jul-01 00:33N 48°38' W 125°48'8 8.0
2015-Jun-30 23:33N 48°31' W 125°54'8 7.6
2015-Jun-30 22:33N 48°29' W 126°05'1 0.8
2015-Jun-30 21:32N 48°30' W 126°06'3 2.7
2015-Jun-30 20:30N 48°28' W 126°03'3 2.9
2015-Jun-30 19:34N 48°27' W 125°60'4 4.0
2015-Jun-30 18:33N 48°24' W 125°55'2 1.6
2015-Jun-30 17:32N 48°23' W 125°54'2 2.2
2015-Jun-30 16:33N 48°25' W 125°55'3 2.8
2015-Jun-30 15:33N 48°28' W 125°56'3 2.6
2015-Jun-30 14:33N 48°29' W 125°59'5 4.6
2015-Jun-30 13:34N 48°24' W 125°58'7 6.5
2015-Jun-30 12:33N 48°29' W 126°05'3 2.7
2015-Jun-30 11:30N 48°29' W 126°01'5 5.0
2015-Jun-30 10:34N 48°33' W 125°57'8 7.8
2015-Jun-30 09:33N 48°39' W 125°49'9 9.1
2015-Jun-30 08:33N 48°46' W 125°41'9 8.9
2015-Jun-30 07:33N 48°53' W 125°33'3 3.2
2015-Jun-30 06:34N 48°57' W 125°33'0 0.0
2015-Jun-30 05:34N 48°57' W 125°33'0 0.0
2015-Jun-30 04:33N 48°57' W 125°33'0 0.0
2015-Jun-30 03:34N 48°57' W 125°33'0 0.0
2015-Jun-30 02:33N 48°57' W 125°33'0 0.0
2015-Jun-30 01:33N 48°57' W 125°33'0 0.0
2015-Jun-30 00:33N 48°57' W 125°33'0 0.0
2015-Jun-29 23:34N 48°57' W 125°33'0 0.4
2015-Jun-29 22:33N 48°56' W 125°32'0 0.0
2015-Jun-29 21:33N 48°56' W 125°32'0 0.0
2015-Jun-29 20:34N 48°56' W 125°32'0 0.0
2015-Jun-29 19:34N 48°56' W 125°32'0 0.5
2015-Jun-29 18:33N 48°57' W 125°33'0 0.0
2015-Jun-29 17:34N 48°57' W 125°33'0 0.0
2015-Jun-29 16:33N 48°57' W 125°33'0 0.0
2015-Jun-29 15:33N 48°57' W 125°33'0 0.0
2015-Jun-29 14:34N 48°57' W 125°33'0 0.0
2015-Jun-29 13:34N 48°57' W 125°33'0 0.0
2015-Jun-29 12:33N 48°57' W 125°33'0 0.0
2015-Jun-29 11:34N 48°57' W 125°33'0 0.0
2015-Jun-29 10:33N 48°57' W 125°33'0 0.0
2015-Jun-29 09:33N 48°57' W 125°33'2 1.8
2015-Jun-29 08:34N 48°55' W 125°31'8 7.8
2015-Jun-29 07:34N 48°49' W 125°38'8 7.8
2015-Jun-29 06:33N 48°43' W 125°46'8 7.8
2015-Jun-29 05:34N 48°37' W 125°52'8 8.0
2015-Jun-29 04:33N 48°30' W 125°59'3 3.0
2015-Jun-29 03:33N 48°28' W 126°02'1 1.4
2015-Jun-29 02:33N 48°27' W 126°01'5 5.4
2015-Jun-29 01:33N 48°31' W 126°07'1 0.7
2015-Jun-29 00:34N 48°30' W 126°06'2 2.4
2015-Jun-28 23:33N 48°28' W 126°04'2 1.6
2015-Jun-28 22:34N 48°27' W 126°04'2 1.8
2015-Jun-28 21:33N 48°28' W 126°06'1 0.6
2015-Jun-28 20:33N 48°28' W 126°06'2 2.4
2015-Jun-28 19:33N 48°31' W 126°07'2 2.4
2015-Jun-28 18:33N 48°29' W 126°05'2 2.1
2015-Jun-28 17:33N 48°27' W 126°05'1 1.4
2015-Jun-28 16:33N 48°28' W 126°05'7 7.3
2015-Jun-28 15:33N 48°35' W 126°10'7 7.5
2015-Jun-28 14:33N 48°41' W 126°14'7 7.2
2015-Jun-28 13:33N 48°47' W 126°21'3 2.6
2015-Jun-28 12:34N 48°46' W 126°18'1 0.9
2015-Jun-28 11:34N 48°47' W 126°17'5 5.2
2015-Jun-28 10:33N 48°48' W 126°09'8 8.4
2015-Jun-28 09:33N 48°50' W 125°57'9 8.7
2015-Jun-28 08:33N 48°53' W 125°44'8 8.5
2015-Jun-28 07:33N 48°55' W 125°32'2 1.7
2015-Jun-28 06:33N 48°57' W 125°33'0 0.0
2015-Jun-28 05:33N 48°57' W 125°33'0 0.0
2015-Jun-28 04:34N 48°57' W 125°33'0 0.0
2015-Jun-28 03:34N 48°57' W 125°33'0 0.0
2015-Jun-28 02:34N 48°57' W 125°33'0 0.0
2015-Jun-28 01:34N 48°57' W 125°33'0 0.0
2015-Jun-28 00:34N 48°57' W 125°33'0 0.0
2015-Jun-27 23:33N 48°57' W 125°33'0 0.0
2015-Jun-27 22:33N 48°57' W 125°33'0 0.0
2015-Jun-27 21:34N 48°57' W 125°33'0 0.0
2015-Jun-27 20:33N 48°57' W 125°33'0 0.0
2015-Jun-27 19:34N 48°57' W 125°33'0 0.0
2015-Jun-27 18:33N 48°57' W 125°33'0 0.0
2015-Jun-27 17:33N 48°57' W 125°33'1 0.6
2015-Jun-27 16:33N 48°56' W 125°32'0 0.0
2015-Jun-27 15:33N 48°56' W 125°32'1 0.6
2015-Jun-27 14:33N 48°57' W 125°33'2 1.7
2015-Jun-27 13:34N 48°55' W 125°32'8 8.0
2015-Jun-27 12:33N 48°58' W 125°43'8 8.4
2015-Jun-27 11:34N 49°02' W 125°54'8 8.5
2015-Jun-27 10:34N 49°06' W 126°06'9 8.6
2015-Jun-27 09:33N 49°10' W 126°17'9 8.6
2015-Jun-27 08:34N 49°15' W 126°28'9 8.8
2015-Jun-27 07:34N 49°20' W 126°39'9 8.7
2015-Jun-27 06:33N 49°25' W 126°50'9 8.9
2015-Jun-27 05:33N 49°31' W 126°60'9 8.7
2015-Jun-27 04:33N 49°37' W 127°10'8 7.9
2015-Jun-27 03:33N 49°42' W 127°19'8 8.3
2015-Jun-27 02:33N 49°48' W 127°28'9 8.6
2015-Jun-27 01:33N 49°54' W 127°38'  

Dump ship's entire track history